• Join FlightAware (Why Join?)
  • Login
  • US Flag 
04:46PM EDT


 

Airport Tracker/Info


-or-


 

Live Flight TrackerFlight Track Log ✈ SWA3206 ✈ 10-May-2013 ✈ KPHX - KBWI

Flight Track Log - Related Links

Times and Time Zones

All times are in EDT time to prevent confusion due to time zone crossing. See the SWA3206 flight status page for this flight to view local times or setup timezone preferences in your user account.

Time Position Orientation Groundspeed Altitude Reporting Facility
EDT Latitude Longitude Course Direction KTS MPH feet Rate Location/Type
10:13PM 33.4333 -112.0333 270° West 163 188 2,100  Level Phoenix TRACON
10:14PM 33.4333 -112.1333 270° West 228 262 4,200 1,440 Climbing Phoenix TRACON
10:15PM 33.4367 -112.1550 280° West 199 229 4,700 2,700 Climbing Albuquerque Center
10:16PM 33.4939 -112.1981 328° Northwest 279 321 7,800 3,240 Climbing Albuquerque Center
10:17PM 33.5308 -112.1183 61° Northeast 290 334 11,400 3,540 Climbing Albuquerque Center
10:18PM 33.5483 -112.0233 78° East 295 339 15,000 2,640 Climbing Albuquerque Center
10:19PM 33.5683 -111.9200 77° East 314 361 16,900 2,280 Climbing Albuquerque Center
10:20PM 33.5886 -111.8067 78° East 343 395 19,700 2,520 Climbing Albuquerque Center
10:21PM 33.6108 -111.6906 77° East 355 409 22,100 2,280 Climbing Albuquerque Center
10:22PM 33.6250 -111.5675 82° East 376 433 24,400 1,860 Climbing Albuquerque Center
10:23PM 33.6472 -111.4164 80° East 398 458 26,000 1,500 Climbing Albuquerque Center
10:24PM 33.6847 -111.2831 71° East 420 483 27,500 1,620 Climbing Albuquerque Center
10:25PM 33.7303 -111.1492 68° East 432 497 29,300 2,100 Climbing Albuquerque Center
10:26PM 33.7778 -111.0164 67° East 435 501 31,800 2,280 Climbing Albuquerque Center
10:27PM 33.8242 -110.8889 66° East 425 489 34,000 1,560 Climbing Albuquerque Center
10:28PM 33.8678 -110.7639 67° East 413 475 35,000 480 Climbing Albuquerque Center
10:29PM 33.9117 -110.6364 67° East 414 476 35,000  Level Albuquerque Center
10:30PM 33.9572 -110.5078 67° East 416 479 35,000  Level Albuquerque Center
10:31PM 34.0094 -110.3589 67° East 420 483 35,000  Level Albuquerque Center
10:32PM 34.0547 -110.2278 67° East 425 489 35,000  Level Albuquerque Center
10:33PM 34.0989 -110.0994 67° East 421 484 35,000  Level Albuquerque Center
10:34PM 34.1481 -109.9564 67° East 419 482 35,000  Level Albuquerque Center
10:35PM 34.1914 -109.8325 67° East 418 481 35,000  Level Albuquerque Center
10:36PM 34.2408 -109.6861 68° East 421 484 35,000  Level Albuquerque Center
10:37PM 34.2836 -109.5617 67° East 421 484 35,000  Level Albuquerque Center
10:38PM 34.3256 -109.4356 68° East 421 484 35,000  Level Albuquerque Center
10:39PM 34.3747 -109.2894 68° East 421 484 35,000  Level Albuquerque Center
10:40PM 34.4183 -109.1639 67° East 423 487 35,000  Level Albuquerque Center
10:41PM 34.4708 -109.0186 66° East 422 486 35,000  Level Albuquerque Center
10:42PM 34.5153 -108.8931 67° East 423 487 35,000  Level Albuquerque Center
10:43PM 34.5597 -108.7672 67° East 424 488 35,000 60 Level Albuquerque Center
10:44PM 34.6111 -108.6178 67° East 428 493 35,200 840 Climbing Albuquerque Center
10:45PM 34.6553 -108.4922 67° East 427 491 36,800 840 Climbing Albuquerque Center
10:46PM 34.6964 -108.3708 68° East 420 483 37,000 60 Climbing Albuquerque Center
10:47PM 34.7433 -108.2389 67° East 425 489 37,000  Level Albuquerque Center
10:48PM 34.7889 -108.1047 68° East 428 493 37,000  Level Albuquerque Center
10:49PM 34.8436 -107.9433 68° East 430 495 37,000  Level Albuquerque Center
10:50PM 34.8903 -107.8086 67° East 432 497 37,000 300 Level Albuquerque Center
10:52PM 34.9361 -107.6719 68° East 434 499 37,700 660 Climbing Albuquerque Center
10:53PM 34.9819 -107.5344 68° East 436 502 38,400 600 Climbing Albuquerque Center
10:54PM 35.0297 -107.3947 67° East 442 509 39,000 240 Climbing Albuquerque Center
10:55PM 35.0764 -107.2528 68° East 447 514 39,000  Level Albuquerque Center
10:56PM 35.1269 -107.1033 67° East 452 520 39,000  Level Albuquerque Center
10:57PM 35.1717 -106.9683 68° East 449 517 39,000  Level Albuquerque Center
10:58PM 35.2219 -106.8114 69° East 445 512 39,000  Level Albuquerque Center
10:59PM 35.2642 -106.6764 69° East 445 512 39,000  Level Albuquerque Center
11:00PM 35.3056 -106.5436 69° East 441 507 39,000  Level Albuquerque Center
11:01PM 35.3497 -106.3942 70° East 446 513 39,000  Level Albuquerque Center
11:02PM 35.3956 -106.2531 68° East 445 512 39,000  Level Albuquerque Center
11:03PM 35.4383 -106.1083 70° East 450 518 39,000  Level Albuquerque Center
11:04PM 35.4828 -105.9636 69° East 452 520 39,000  Level Albuquerque Center
11:05PM 35.5339 -105.7933 70° East 449 517 39,000  Level Albuquerque Center
11:06PM 35.5778 -105.6458 70° East 452 520 39,000  Level Albuquerque Center
11:07PM 35.6219 -105.5014 69° East 449 517 39,000  Level Albuquerque Center
11:08PM 35.6647 -105.3539 70° East 452 520 39,000  Level Albuquerque Center
11:09PM 35.7094 -105.2064 69° East 452 520 39,000  Level Albuquerque Center
11:10PM 35.7494 -105.0619 71° East 444 511 39,000  Level Albuquerque Center
11:11PM 35.7931 -104.9142 70° East 450 518 39,000  Level Albuquerque Center
11:12PM 35.8367 -104.7661 70° East 453 521 39,000  Level Albuquerque Center
11:13PM 35.8786 -104.6183 71° East 452 520 39,000  Level Albuquerque Center
11:14PM 35.9211 -104.4708 70° East 451 519 39,000  Level Albuquerque Center
11:15PM 35.9639 -104.3231 70° East 450 518 39,000  Level Albuquerque Center
11:16PM 36.0064 -104.1767 70° East 449 517 39,000  Level Albuquerque Center
11:17PM 36.0486 -104.0275 71° East 452 520 39,000  Level Albuquerque Center
11:18PM 36.0906 -103.8794 71° East 452 520 39,000  Level Albuquerque Center
11:19PM 36.1331 -103.7308 70° East 453 521 39,000  Level Albuquerque Center
11:20PM 36.1753 -103.5836 70° East 450 518 39,000  Level Albuquerque Center
11:21PM 36.2175 -103.4306 71° East 459 528 39,000  Level Albuquerque Center
11:22PM 36.2586 -103.2794 71° East 459 528 39,000  Level Albuquerque Center
11:23PM 36.2989 -103.1253 72° East 464 534 39,000  Level Albuquerque Center
11:24PM 36.3414 -102.9733 71° East 463 533 39,000  Level Albuquerque Center
11:25PM 36.3811 -102.8253 72° East 463 533 39,000  Level Albuquerque Center
11:26PM 36.4297 -102.6453 71° East 460 529 39,000  Level Albuquerque Center
11:27PM 36.4706 -102.4939 71° East 462 532 39,000  Level Albuquerque Center
11:28PM 36.5111 -102.3431 71° East 460 529 39,000  Level Albuquerque Center
11:29PM 36.5500 -102.1942 72° East 456 525 39,000  Level Albuquerque Center
11:30PM 36.5892 -102.0442 72° East 456 525 39,000  Level Albuquerque Center
11:31PM 36.6308 -101.8842 72° East 456 525 39,000  Level Albuquerque Center
11:32PM 36.6686 -101.7394 72° East 458 527 39,000  Level Albuquerque Center
11:33PM 36.7133 -101.5728 71° East 457 526 39,000  Level Albuquerque Center
11:34PM 36.7500 -101.4278 72° East 458 527 39,000  Level Albuquerque Center
11:35PM 36.7867 -101.2819 73° East 460 529 39,000  Level Albuquerque Center
11:37PM 36.8262 -101.1158 73° East  Level FlightAware Approximate
11:44PM 37.0655 -100.0855 73° East  Level FlightAware Approximate
11:45PM 37.0990 -99.9378 74° East  Level FlightAware Approximate
11:46PM 37.1340 -99.7894 73° East  Level FlightAware Approximate
11:47PM 37.1687 -99.6420 74° East  Level FlightAware Approximate
11:48PM 37.2031 -99.4944 74° East  Level FlightAware Approximate
11:49PM 37.2374 -99.3467 74° East  Level FlightAware Approximate
11:50PM 37.2714 -99.1989 74° East  Level FlightAware Approximate
11:51PM 37.3053 -99.0510 74° East  Level FlightAware Approximate
11:52PM 37.3390 -98.9029 74° East  Level FlightAware Approximate
11:53PM 37.3726 -98.7546 74° East  Level FlightAware Approximate
11:54PM 37.4059 -98.6063 74° East  Level FlightAware Approximate
11:55PM 37.4390 -98.4578 74° East  Level FlightAware Approximate
11:56PM 37.4720 -98.3092 74° East  Level FlightAware Approximate
11:57PM 37.5048 -98.1605 74° East  Level FlightAware Approximate
11:58PM 37.5374 -98.0116 75° East  Level FlightAware Approximate
11:58PM 37.6122 -97.8061 75° East 472 543 39,000  Level Kansas City Center
11:59PM 37.5698 -97.8626 75° East  Level FlightAware Approximate
11:59PM 37.6539 -97.6167 74° East 472 543 39,000  Level Kansas City Center
12:00AM 37.6025 -97.7136 74° East  Level FlightAware Approximate
12:00AM 37.6883 -97.4614 74° East 469 540 39,000  Level Kansas City Center
12:01AM 37.6355 -97.5647 74° East  Level FlightAware Approximate
12:01AM 37.7244 -97.2986 74° East 478 550 39,000  Level Kansas City Center
12:02AM 37.6683 -97.4156 74° East  Level FlightAware Approximate
12:02AM 37.7589 -97.1372 75° East 477 549 39,000  Level Kansas City Center
12:03AM 37.7008 -97.2664 75° East  Level FlightAware Approximate
12:03AM 37.7928 -96.9764 75° East 477 549 39,000  Level Kansas City Center
12:04AM 37.8278 -96.8128 75° East 481 554 39,000  Level Kansas City Center
12:05AM 37.8631 -96.6489 75° East 484 557 39,000  Level Kansas City Center
12:06AM 37.8972 -96.4850 75° East 483 556 39,000  Level Kansas City Center
12:07AM 37.9311 -96.3192 75° East 485 558 39,000  Level Kansas City Center
12:08AM 37.9658 -96.1533 75° East 486 559 39,000  Level Kansas City Center
12:09AM 38.0042 -95.9617 76° East 483 556 39,000  Level Kansas City Center
12:10AM 38.0358 -95.8025 76° East 486 559 39,000  Level Kansas City Center
12:11AM 38.0681 -95.6450 75° East 484 557 39,000  Level Kansas City Center
12:12AM 38.1047 -95.4597 76° East 486 559 39,000  Level Kansas City Center
12:13AM 38.1369 -95.3000 76° East 488 562 39,000  Level Kansas City Center
12:14AM 38.1681 -95.1378 76° East 492 566 39,000  Level Kansas City Center
12:15AM 38.2042 -94.9503 76° East 491 565 39,000  Level Kansas City Center
12:16AM 38.2353 -94.7869 76° East 494 568 39,000  Level Kansas City Center
12:17AM 38.2667 -94.6256 76° East 494 568 39,000  Level Kansas City Center
12:18AM 38.3014 -94.4386 77° East 492 566 39,000  Level Kansas City Center
12:19AM 38.3322 -94.2772 76° East 491 565 39,000  Level Kansas City Center
12:20AM 38.3672 -94.0903 77° East 490 564 39,000  Level Kansas City Center
12:21AM 38.3986 -93.9219 77° East 488 562 39,000  Level Kansas City Center
12:22AM 38.4289 -93.7522 77° East 488 562 39,000  Level Kansas City Center
12:23AM 38.4594 -93.5847 77° East 486 559 39,000  Level Kansas City Center
12:24AM 38.4897 -93.4156 77° East 486 559 39,000  Level Kansas City Center
12:25AM 38.5206 -93.2467 77° East 486 559 39,000 120 Level Kansas City Center
12:26AM 38.5503 -93.0775 77° East 485 558 39,300 540 Climbing Kansas City Center
12:27AM 38.5806 -92.9061 77° East 489 563 40,200 780 Climbing Kansas City Center
12:28AM 38.6092 -92.7358 78° East 488 562 41,000 360 Climbing Kansas City Center
12:29AM 38.6372 -92.5661 78° East 486 559 41,000  Level Kansas City Center
12:30AM 38.6672 -92.3953 77° East 487 560 41,000  Level Kansas City Center
12:31AM 38.6942 -92.2250 78° East 485 558 41,000  Level Kansas City Center
12:32AM 38.7222 -92.0556 78° East 483 556 41,000  Level Kansas City Center
12:33AM 38.7511 -91.8867 78° East 483 556 41,000  Level Kansas City Center
12:34AM 38.7783 -91.7164 78° East 484 557 41,000  Level Kansas City Center
12:35AM 38.8061 -91.5425 78° East 485 558 41,000  Level Kansas City Center
12:36AM 38.8328 -91.3733 79° East 485 558 41,000  Level Kansas City Center
12:37AM 38.8603 -91.2033 78° East 486 559 41,000  Level Kansas City Center
12:38AM 38.8883 -91.0306 78° East 490 564 41,000  Level Kansas City Center
12:39AM 38.9158 -90.8575 78° East 492 566 41,000  Level Kansas City Center
12:40AM 38.9439 -90.6839 78° East 493 567 41,000  Level Kansas City Center
12:41AM 38.9703 -90.5056 79° East 499 574 41,000  Level Kansas City Center
12:42AM 38.9972 -90.3269 79° East 502 578 41,000  Level Kansas City Center
12:43AM 39.0236 -90.1486 79° East 503 579 41,000  Level Kansas City Center
12:45AM 39.0508 -89.9625 79° East 501 577 41,000  Level Kansas City Center
12:46AM 39.0786 -89.7753 79° East 496 571 41,000  Level Kansas City Center
12:47AM 39.1033 -89.5986 80° East 500 575 41,000  Level Kansas City Center
12:48AM 39.1286 -89.4222 79° East 500 575 41,000  Level Kansas City Center
12:49AM 39.1522 -89.2464 80° East 500 575 41,000  Level Kansas City Center
12:50AM 39.1758 -89.0925 79° East 503 579 41,000  Level Kansas City Center
12:51AM 39.1989 -88.9172 80° East 500 575 41,000  Level Kansas City Center
12:52AM 39.2244 -88.7425 79° East 497 572 41,000  Level Kansas City Center
12:53AM 39.2522 -88.5478 80° East 502 578 41,000  Level Kansas City Center
12:54AM 39.2736 -88.3711 81° East 499 574 41,000  Level Kansas City Center
12:55AM 39.2972 -88.1928 80° East 500 575 41,000  Level Kansas City Center
12:56AM 39.3183 -88.0189 81° East 492 566 41,000  Level Kansas City Center
12:57AM 39.3411 -87.8444 80° East 489 563 41,000  Level Kansas City Center
12:58AM 39.3628 -87.6731 81° East 488 562 41,000  Level Indianapolis Center
12:59AM 39.3864 -87.4842 81° East 488 562 41,000  Level Indianapolis Center
01:00AM 39.4069 -87.3097 81° East 495 570 41,000  Level Indianapolis Center
01:01AM 39.4292 -87.1356 81° East 493 567 41,000  Level Indianapolis Center
01:02AM 39.4500 -86.9608 81° East 496 571 41,000  Level Indianapolis Center
01:03AM 39.4706 -86.7861 81° East 495 570 41,000  Level Indianapolis Center
01:04AM 39.4911 -86.6111 81° East 497 572 41,000  Level Indianapolis Center
01:05AM 39.5119 -86.4364 81° East 497 572 41,000  Level Indianapolis Center
01:06AM 39.5308 -86.2633 82° East 497 572 41,000  Level Indianapolis Center
01:07AM 39.5503 -86.0906 82° East 496 571 41,000  Level Indianapolis Center
01:08AM 39.5742 -85.8817 81° East 495 570 41,000  Level Indianapolis Center
01:09AM 39.5908 -85.7058 83° East 495 570 41,000  Level Indianapolis Center
01:10AM 39.6017 -85.5278 85° East 499 574 41,000  Level Indianapolis Center
01:11AM 39.6147 -85.3514 84° East 497 572 41,000  Level Indianapolis Center
01:12AM 39.6267 -85.1731 85° East 498 573 41,000  Level Indianapolis Center
01:13AM 39.6381 -84.9939 85° East 500 575 41,000  Level Indianapolis Center
01:14AM 39.6514 -84.8072 85° East 500 575 41,000  Level Indianapolis Center
01:15AM 39.6633 -84.6256 85° East 501 577 41,000  Level Indianapolis Center
01:16AM 39.6742 -84.4442 86° East 500 575 41,000  Level Indianapolis Center
01:17AM 39.6842 -84.2619 86° East 502 578 41,000  Level Indianapolis Center
01:18AM 39.6956 -84.0833 85° East 495 570 41,000  Level Indianapolis Center
01:19AM 39.7061 -83.9028 86° East 497 572 41,000  Level Indianapolis Center
01:20AM 39.7153 -83.7264 86° East 491 565 41,000  Level Indianapolis Center
01:21AM 39.7247 -83.5508 86° East 491 565 41,000  Level Indianapolis Center
01:22AM 39.7261 -83.3778 89° East 490 564 41,000  Level Indianapolis Center
01:23AM 39.7189 -83.2019 93° East 489 563 41,000  Level Indianapolis Center
01:24AM 39.7114 -83.0239 93° East 491 565 41,000  Level Indianapolis Center
01:25AM 39.7047 -82.8475 93° East 488 562 41,000  Level Indianapolis Center
01:26AM 39.6969 -82.6689 93° East 491 565 41,000  Level Indianapolis Center
01:27AM 39.6881 -82.4897 94° East 492 566 41,000  Level Indianapolis Center
01:28AM 39.6808 -82.3117 93° East 492 566 41,000  Level Indianapolis Center
01:29AM 39.6717 -82.1294 94° East 499 574 41,000  Level Indianapolis Center
01:30AM 39.6625 -81.9486 94° East 499 574 41,000  Level Indianapolis Center
01:31AM 39.6539 -81.7669 93° East 500 575 41,000  Level Indianapolis Center
01:32AM 39.6497 -81.6075 92° East 500 575 41,000  Level Cleveland Center
01:33AM 39.6386 -81.4294 95° East 500 575 41,000  Level Cleveland Center
01:34AM 39.6294 -81.2514 94° East 500 575 41,000  Level Cleveland Center
01:35AM 39.6147 -81.0514 95° East 490 564 41,000  Level Indianapolis Center
01:36AM 39.6036 -80.8739 95° East 492 566 41,000  Level Indianapolis Center
01:37AM 39.5942 -80.6989 94° East 485 558 41,000  Level Indianapolis Center
01:38AM 39.5825 -80.5233 95° East 488 562 41,000  Level Indianapolis Center
01:38AM 39.5853 -80.4844 85° East 488 562 41,000  Level Washington Center
01:39AM 39.5733 -80.3139 95° East 483 556 41,000  Level Washington Center
01:40AM 39.5611 -80.1436 95° East 483 556 41,000  Level Washington Center
01:41AM 39.5506 -79.9733 95° East 483 556 41,000  Level Washington Center
01:42AM 39.5381 -79.8003 95° East 483 556 41,000 -600 Level Washington Center
01:43AM 39.5272 -79.6275 95° East 483 556 39,800 -1,860 Descending Washington Center
01:44AM 39.5142 -79.4600 96° East 483 556 37,300 -2,640 Descending Washington Center
01:45AM 39.5031 -79.2817 95° East 483 556 34,600 -2,700 Descending Washington Center
01:46AM 39.4875 -79.1061 96° East 489 563 32,000 -2,460 Descending Washington Center
01:47AM 39.4736 -78.9361 96° East 481 554 29,700 -2,280 Descending Washington Center
01:48AM 39.4614 -78.7717 95° East 468 539 27,500 -2,160 Descending Washington Center
01:49AM 39.4489 -78.6069 96° East 463 533 25,400 -2,160 Descending Washington Center
01:50AM 39.4342 -78.4425 97° East 463 533 23,200 -2,220 Descending Washington Center
01:51AM 39.4214 -78.2728 96° East 458 527 21,100 -2,040 Descending Washington Center
01:52AM 39.4081 -78.1219 96° East 437 503 19,100 -2,040 Descending Washington Center
01:53AM 39.3942 -77.9764 97° East 424 488 17,000 -2,100 Descending Washington Center
01:54AM 39.3867 -77.8311 94° East 406 467 15,000 -1,020 Descending Washington Center
01:55AM 39.4036 -77.6947 81° East 393 452 15,000 -720 Level Washington Center
01:56AM 39.4017 -77.5550 91° East 383 441 13,600 -2,280 Descending Washington Center
01:57AM 39.3667 -77.4333 110° East 407 468 10,900 -1,920 Descending Potomac TRACON
01:58AM 39.3167 -77.3167 119° Southeast 344 396 10,200 -1,320 Descending Potomac TRACON
01:59AM 39.2833 -77.2167 113° Southeast 319 367 8,300 -1,800 Descending Potomac TRACON
02:00AM 39.2500 -77.1167 113° Southeast 306 352 6,600 -1,800 Descending Potomac TRACON
02:01AM 39.2167 -77.0167 113° Southeast 295 339 4,800 -1,740 Descending Potomac TRACON
02:02AM 39.2000 -76.9167 102° East 267 307 3,100 -1,140 Descending Potomac TRACON
02:03AM 39.1833 -76.8500 108° East 230 265 2,700 -780 Descending Potomac TRACON
02:04AM 39.1833 -76.7833 90° East 176 203 1,600 -960 Descending Potomac TRACON
02:05AM 39.1833 -76.7167 90° East 137 158 600 -900 Descending Potomac TRACON
02:07AM 39.1667 -76.6667 142° Southeast  Level FlightAware Approximate
02:14AM 39.1754 -76.6683 142° Southeast  Level Estimated
02:15AM 39.1754 -76.6683 142° Southeast  Level Estimated
02:16AM 39.1754 -76.6683 142° Southeast  Level Estimated
02:17AM 39.1754 -76.6683 142° Southeast  Level Estimated